sensor_id;sensor_type;location;lat;lon;timestamp;P1;durP1;ratioP1;P2;durP2;ratioP2
68509;SDS011;55512;50.102;19.958;2024-01-15T00:01:54;6.80;;;3.00;;
68509;SDS011;55512;50.102;19.958;2024-01-15T00:04:36;9.80;;;3.60;;
68509;SDS011;55512;50.102;19.958;2024-01-15T00:07:03;10.00;;;4.70;;
68509;SDS011;55512;50.102;19.958;2024-01-15T00:09:29;9.30;;;4.10;;
68509;SDS011;55512;50.102;19.958;2024-01-15T00:11:59;11.70;;;4.80;;
68509;SDS011;55512;50.102;19.958;2024-01-15T00:14:31;9.10;;;3.90;;
68509;SDS011;55512;50.102;19.958;2024-01-15T00:16:56;8.00;;;3.50;;
68509;SDS011;55512;50.102;19.958;2024-01-15T00:19:22;9.00;;;3.90;;
68509;SDS011;55512;50.102;19.958;2024-01-15T00:21:55;10.40;;;3.80;;
68509;SDS011;55512;50.102;19.958;2024-01-15T00:24:30;10.20;;;4.20;;
68509;SDS011;55512;50.102;19.958;2024-01-15T00:27:04;10.60;;;3.90;;
68509;SDS011;55512;50.102;19.958;2024-01-15T00:29:45;7.80;;;3.50;;
68509;SDS011;55512;50.102;19.958;2024-01-15T00:32:15;8.80;;;4.30;;
68509;SDS011;55512;50.102;19.958;2024-01-15T00:39:11;9.80;;;3.80;;
68509;SDS011;55512;50.102;19.958;2024-01-15T00:49:27;10.10;;;4.20;;
68509;SDS011;55512;50.102;19.958;2024-01-15T00:51:58;9.10;;;3.60;;
68509;SDS011;55512;50.102;19.958;2024-01-15T00:54:27;9.80;;;3.80;;
68509;SDS011;55512;50.102;19.958;2024-01-15T00:56:52;8.50;;;4.10;;
68509;SDS011;55512;50.102;19.958;2024-01-15T00:59:20;7.60;;;3.20;;
68509;SDS011;55512;50.102;19.958;2024-01-15T01:01:46;9.00;;;4.10;;
68509;SDS011;55512;50.102;19.958;2024-01-15T01:04:12;8.90;;;4.20;;
68509;SDS011;55512;50.102;19.958;2024-01-15T01:06:38;9.20;;;3.70;;
68509;SDS011;55512;50.102;19.958;2024-01-15T01:09:10;9.30;;;4.00;;
68509;SDS011;55512;50.102;19.958;2024-01-15T01:11:36;11.20;;;3.90;;
68509;SDS011;55512;50.102;19.958;2024-01-15T01:14:02;9.30;;;3.90;;
68509;SDS011;55512;50.102;19.958;2024-01-15T01:16:28;9.90;;;4.40;;
68509;SDS011;55512;50.102;19.958;2024-01-15T01:18:55;10.50;;;4.40;;
68509;SDS011;55512;50.102;19.958;2024-01-15T01:21:24;9.40;;;4.10;;
68509;SDS011;55512;50.102;19.958;2024-01-15T01:23:49;10.90;;;4.00;;
68509;SDS011;55512;50.102;19.958;2024-01-15T01:26:18;7.40;;;3.70;;
68509;SDS011;55512;50.102;19.958;2024-01-15T01:28:44;8.80;;;4.20;;
68509;SDS011;55512;50.102;19.958;2024-01-15T01:31:09;10.70;;;4.40;;
68509;SDS011;55512;50.102;19.958;2024-01-15T01:33:39;9.30;;;3.90;;
68509;SDS011;55512;50.102;19.958;2024-01-15T01:36:10;9.80;;;3.90;;
68509;SDS011;55512;50.102;19.958;2024-01-15T01:38:40;9.00;;;3.90;;
68509;SDS011;55512;50.102;19.958;2024-01-15T01:41:06;10.20;;;4.40;;
68509;SDS011;55512;50.102;19.958;2024-01-15T01:43:33;9.50;;;3.50;;
68509;SDS011;55512;50.102;19.958;2024-01-15T01:46:00;8.10;;;3.90;;
68509;SDS011;55512;50.102;19.958;2024-01-15T01:48:28;9.70;;;3.90;;
68509;SDS011;55512;50.102;19.958;2024-01-15T01:51:00;9.80;;;3.90;;
68509;SDS011;55512;50.102;19.958;2024-01-15T01:53:27;9.20;;;3.50;;
68509;SDS011;55512;50.102;19.958;2024-01-15T01:55:56;8.20;;;3.10;;
68509;SDS011;55512;50.102;19.958;2024-01-15T01:58:23;8.10;;;3.40;;
68509;SDS011;55512;50.102;19.958;2024-01-15T02:00:49;6.30;;;2.30;;
68509;SDS011;55512;50.102;19.958;2024-01-15T02:03:15;10.00;;;3.30;;
68509;SDS011;55512;50.102;19.958;2024-01-15T02:05:43;8.90;;;3.40;;
68509;SDS011;55512;50.102;19.958;2024-01-15T02:08:10;8.20;;;2.40;;
68509;SDS011;55512;50.102;19.958;2024-01-15T02:10:35;7.10;;;2.20;;
68509;SDS011;55512;50.102;19.958;2024-01-15T02:13:02;7.20;;;2.60;;
68509;SDS011;55512;50.102;19.958;2024-01-15T02:15:27;5.70;;;2.30;;
68509;SDS011;55512;50.102;19.958;2024-01-15T02:18:11;7.40;;;2.80;;
68509;SDS011;55512;50.102;19.958;2024-01-15T02:20:37;6.30;;;1.90;;
68509;SDS011;55512;50.102;19.958;2024-01-15T02:23:14;5.60;;;2.10;;
68509;SDS011;55512;50.102;19.958;2024-01-15T02:25:42;7.00;;;2.70;;
68509;SDS011;55512;50.102;19.958;2024-01-15T02:28:17;6.10;;;2.30;;
68509;SDS011;55512;50.102;19.958;2024-01-15T02:30:43;7.60;;;1.90;;
68509;SDS011;55512;50.102;19.958;2024-01-15T02:33:10;7.00;;;2.20;;
68509;SDS011;55512;50.102;19.958;2024-01-15T02:35:36;4.10;;;1.60;;
68509;SDS011;55512;50.102;19.958;2024-01-15T02:38:03;3.90;;;1.80;;
68509;SDS011;55512;50.102;19.958;2024-01-15T02:40:30;8.60;;;2.30;;
68509;SDS011;55512;50.102;19.958;2024-01-15T02:42:56;7.40;;;2.10;;
68509;SDS011;55512;50.102;19.958;2024-01-15T02:45:25;6.00;;;2.00;;
68509;SDS011;55512;50.102;19.958;2024-01-15T02:47:51;5.20;;;1.50;;
68509;SDS011;55512;50.102;19.958;2024-01-15T02:50:17;5.70;;;1.90;;
68509;SDS011;55512;50.102;19.958;2024-01-15T02:52:43;5.40;;;1.60;;
68509;SDS011;55512;50.102;19.958;2024-01-15T02:55:09;5.40;;;1.90;;
68509;SDS011;55512;50.102;19.958;2024-01-15T02:57:35;6.10;;;2.10;;
68509;SDS011;55512;50.102;19.958;2024-01-15T03:00:03;5.60;;;2.10;;
68509;SDS011;55512;50.102;19.958;2024-01-15T03:02:43;5.50;;;1.90;;
68509;SDS011;55512;50.102;19.958;2024-01-15T03:05:30;6.50;;;2.30;;
68509;SDS011;55512;50.102;19.958;2024-01-15T03:07:59;6.10;;;2.00;;
68509;SDS011;55512;50.102;19.958;2024-01-15T03:10:24;6.40;;;1.70;;
68509;SDS011;55512;50.102;19.958;2024-01-15T03:12:50;5.70;;;1.90;;
68509;SDS011;55512;50.102;19.958;2024-01-15T03:15:16;5.80;;;1.70;;
68509;SDS011;55512;50.102;19.958;2024-01-15T03:17:47;6.40;;;2.10;;
68509;SDS011;55512;50.102;19.958;2024-01-15T03:20:13;5.80;;;1.80;;
68509;SDS011;55512;50.102;19.958;2024-01-15T03:22:39;3.90;;;1.30;;
68509;SDS011;55512;50.102;19.958;2024-01-15T03:25:06;5.40;;;1.60;;
68509;SDS011;55512;50.102;19.958;2024-01-15T03:27:36;5.50;;;1.80;;
68509;SDS011;55512;50.102;19.958;2024-01-15T03:30:01;6.40;;;1.80;;
68509;SDS011;55512;50.102;19.958;2024-01-15T03:32:27;4.80;;;1.60;;
68509;SDS011;55512;50.102;19.958;2024-01-15T03:34:53;6.00;;;2.10;;
68509;SDS011;55512;50.102;19.958;2024-01-15T03:37:22;5.70;;;1.80;;
68509;SDS011;55512;50.102;19.958;2024-01-15T03:39:47;5.60;;;1.70;;
68509;SDS011;55512;50.102;19.958;2024-01-15T03:42:13;3.20;;;1.20;;
68509;SDS011;55512;50.102;19.958;2024-01-15T03:44:39;5.00;;;1.40;;
68509;SDS011;55512;50.102;19.958;2024-01-15T03:47:05;4.70;;;1.50;;
68509;SDS011;55512;50.102;19.958;2024-01-15T03:49:31;3.70;;;1.10;;
68509;SDS011;55512;50.102;19.958;2024-01-15T03:51:56;3.90;;;1.50;;
68509;SDS011;55512;50.102;19.958;2024-01-15T03:54:22;3.50;;;1.20;;
68509;SDS011;55512;50.102;19.958;2024-01-15T03:56:48;4.20;;;1.50;;
68509;SDS011;55512;50.102;19.958;2024-01-15T03:59:14;4.50;;;1.20;;
68509;SDS011;55512;50.102;19.958;2024-01-15T04:01:39;3.40;;;0.80;;
68509;SDS011;55512;50.102;19.958;2024-01-15T04:04:05;5.10;;;1.30;;
68509;SDS011;55512;50.102;19.958;2024-01-15T04:06:31;4.60;;;1.40;;
68509;SDS011;55512;50.102;19.958;2024-01-15T04:08:58;5.20;;;1.00;;
68509;SDS011;55512;50.102;19.958;2024-01-15T04:11:24;4.50;;;1.60;;
68509;SDS011;55512;50.102;19.958;2024-01-15T04:13:50;5.10;;;1.60;;
68509;SDS011;55512;50.102;19.958;2024-01-15T04:16:16;4.70;;;1.30;;
68509;SDS011;55512;50.102;19.958;2024-01-15T04:18:41;3.90;;;1.10;;
68509;SDS011;55512;50.102;19.958;2024-01-15T04:21:12;4.10;;;1.10;;
68509;SDS011;55512;50.102;19.958;2024-01-15T04:23:39;4.20;;;1.30;;
68509;SDS011;55512;50.102;19.958;2024-01-15T04:26:05;5.10;;;1.50;;
68509;SDS011;55512;50.102;19.958;2024-01-15T04:28:30;3.80;;;1.10;;
68509;SDS011;55512;50.102;19.958;2024-01-15T04:30:58;3.90;;;1.70;;
68509;SDS011;55512;50.102;19.958;2024-01-15T04:33:27;2.90;;;1.00;;
68509;SDS011;55512;50.102;19.958;2024-01-15T04:35:53;4.80;;;1.50;;
68509;SDS011;55512;50.102;19.958;2024-01-15T04:38:22;4.20;;;1.20;;
68509;SDS011;55512;50.102;19.958;2024-01-15T04:40:50;3.70;;;0.90;;
68509;SDS011;55512;50.102;19.958;2024-01-15T04:43:19;4.50;;;1.60;;
68509;SDS011;55512;50.102;19.958;2024-01-15T04:45:45;4.90;;;1.30;;
68509;SDS011;55512;50.102;19.958;2024-01-15T04:48:11;4.90;;;1.50;;
68509;SDS011;55512;50.102;19.958;2024-01-15T04:50:48;2.60;;;1.00;;
68509;SDS011;55512;50.102;19.958;2024-01-15T04:53:14;4.30;;;1.20;;
68509;SDS011;55512;50.102;19.958;2024-01-15T04:55:39;3.40;;;0.80;;
68509;SDS011;55512;50.102;19.958;2024-01-15T04:58:05;2.80;;;1.00;;
68509;SDS011;55512;50.102;19.958;2024-01-15T05:00:31;4.70;;;1.40;;
68509;SDS011;55512;50.102;19.958;2024-01-15T05:02:59;3.90;;;1.20;;
68509;SDS011;55512;50.102;19.958;2024-01-15T05:05:25;3.80;;;1.40;;
68509;SDS011;55512;50.102;19.958;2024-01-15T05:07:51;3.70;;;1.20;;
68509;SDS011;55512;50.102;19.958;2024-01-15T05:10:16;4.70;;;1.50;;
68509;SDS011;55512;50.102;19.958;2024-01-15T05:12:42;5.00;;;1.60;;
68509;SDS011;55512;50.102;19.958;2024-01-15T05:15:08;2.60;;;1.00;;
68509;SDS011;55512;50.102;19.958;2024-01-15T05:17:35;5.10;;;1.60;;
68509;SDS011;55512;50.102;19.958;2024-01-15T05:20:00;4.80;;;1.30;;
68509;SDS011;55512;50.102;19.958;2024-01-15T05:22:26;6.20;;;1.90;;
68509;SDS011;55512;50.102;19.958;2024-01-15T05:24:52;5.30;;;1.60;;
68509;SDS011;55512;50.102;19.958;2024-01-15T05:27:18;4.60;;;1.40;;
68509;SDS011;55512;50.102;19.958;2024-01-15T05:29:53;4.80;;;1.70;;
68509;SDS011;55512;50.102;19.958;2024-01-15T05:32:24;4.50;;;1.30;;
68509;SDS011;55512;50.102;19.958;2024-01-15T05:34:50;5.80;;;1.80;;
68509;SDS011;55512;50.102;19.958;2024-01-15T05:37:15;7.20;;;2.00;;
68509;SDS011;55512;50.102;19.958;2024-01-15T05:39:41;4.50;;;1.50;;
68509;SDS011;55512;50.102;19.958;2024-01-15T05:42:09;5.40;;;1.30;;
68509;SDS011;55512;50.102;19.958;2024-01-15T05:44:35;3.40;;;1.30;;
68509;SDS011;55512;50.102;19.958;2024-01-15T05:47:01;5.30;;;1.40;;
68509;SDS011;55512;50.102;19.958;2024-01-15T05:49:32;4.90;;;1.70;;
68509;SDS011;55512;50.102;19.958;2024-01-15T05:51:57;4.80;;;1.20;;
68509;SDS011;55512;50.102;19.958;2024-01-15T05:54:26;5.60;;;1.80;;
68509;SDS011;55512;50.102;19.958;2024-01-15T05:57:21;4.90;;;1.40;;
68509;SDS011;55512;50.102;19.958;2024-01-15T05:59:52;4.60;;;1.70;;
68509;SDS011;55512;50.102;19.958;2024-01-15T06:02:18;5.30;;;1.60;;
68509;SDS011;55512;50.102;19.958;2024-01-15T06:04:43;4.40;;;1.40;;
68509;SDS011;55512;50.102;19.958;2024-01-15T06:07:15;4.20;;;1.30;;
68509;SDS011;55512;50.102;19.958;2024-01-15T06:09:49;5.40;;;1.60;;
68509;SDS011;55512;50.102;19.958;2024-01-15T06:12:19;4.00;;;1.30;;
68509;SDS011;55512;50.102;19.958;2024-01-15T06:14:53;6.50;;;1.80;;
68509;SDS011;55512;50.102;19.958;2024-01-15T06:17:22;4.10;;;1.50;;
68509;SDS011;55512;50.102;19.958;2024-01-15T06:19:48;5.50;;;1.70;;
68509;SDS011;55512;50.102;19.958;2024-01-15T06:22:17;5.80;;;1.50;;
68509;SDS011;55512;50.102;19.958;2024-01-15T06:24:43;5.10;;;1.90;;
68509;SDS011;55512;50.102;19.958;2024-01-15T06:27:09;4.70;;;1.50;;
68509;SDS011;55512;50.102;19.958;2024-01-15T06:29:37;4.20;;;1.40;;
68509;SDS011;55512;50.102;19.958;2024-01-15T06:32:10;6.10;;;1.90;;
68509;SDS011;55512;50.102;19.958;2024-01-15T06:34:38;5.00;;;1.20;;
68509;SDS011;55512;50.102;19.958;2024-01-15T06:37:07;6.70;;;1.80;;
68509;SDS011;55512;50.102;19.958;2024-01-15T06:39:37;5.90;;;1.80;;
68509;SDS011;55512;50.102;19.958;2024-01-15T06:42:22;8.20;;;2.10;;
68509;SDS011;55512;50.102;19.958;2024-01-15T06:44:51;4.50;;;1.50;;
68509;SDS011;55512;50.102;19.958;2024-01-15T06:47:28;4.80;;;1.70;;
68509;SDS011;55512;50.102;19.958;2024-01-15T06:53:19;6.00;;;1.80;;
68509;SDS011;55512;50.102;19.958;2024-01-15T06:55:47;4.90;;;1.50;;
68509;SDS011;55512;50.102;19.958;2024-01-15T06:58:24;6.00;;;2.10;;
68509;SDS011;55512;50.102;19.958;2024-01-15T07:00:52;6.30;;;1.90;;
68509;SDS011;55512;50.102;19.958;2024-01-15T07:03:18;4.80;;;1.60;;
68509;SDS011;55512;50.102;19.958;2024-01-15T07:05:49;5.50;;;2.10;;
68509;SDS011;55512;50.102;19.958;2024-01-15T07:08:15;5.70;;;1.70;;
68509;SDS011;55512;50.102;19.958;2024-01-15T07:10:41;6.30;;;2.10;;
68509;SDS011;55512;50.102;19.958;2024-01-15T07:13:06;6.60;;;2.20;;
68509;SDS011;55512;50.102;19.958;2024-01-15T07:15:38;6.90;;;1.80;;
68509;SDS011;55512;50.102;19.958;2024-01-15T07:18:04;7.10;;;2.80;;
68509;SDS011;55512;50.102;19.958;2024-01-15T07:20:33;7.90;;;2.40;;
68509;SDS011;55512;50.102;19.958;2024-01-15T07:22:59;5.90;;;2.10;;
68509;SDS011;55512;50.102;19.958;2024-01-15T07:25:25;4.80;;;1.80;;
68509;SDS011;55512;50.102;19.958;2024-01-15T07:27:54;6.70;;;2.50;;
68509;SDS011;55512;50.102;19.958;2024-01-15T07:30:20;8.20;;;2.90;;
68509;SDS011;55512;50.102;19.958;2024-01-15T07:32:47;7.50;;;2.70;;
68509;SDS011;55512;50.102;19.958;2024-01-15T07:35:14;6.50;;;2.50;;
68509;SDS011;55512;50.102;19.958;2024-01-15T07:37:40;6.90;;;2.30;;
68509;SDS011;55512;50.102;19.958;2024-01-15T07:40:07;6.90;;;2.60;;
68509;SDS011;55512;50.102;19.958;2024-01-15T07:42:43;7.60;;;2.40;;
68509;SDS011;55512;50.102;19.958;2024-01-15T07:45:10;6.20;;;2.40;;
68509;SDS011;55512;50.102;19.958;2024-01-15T07:47:36;8.20;;;2.90;;
68509;SDS011;55512;50.102;19.958;2024-01-15T07:50:02;7.10;;;2.60;;
68509;SDS011;55512;50.102;19.958;2024-01-15T07:52:31;7.50;;;3.00;;
68509;SDS011;55512;50.102;19.958;2024-01-15T07:54:59;7.10;;;2.30;;
68509;SDS011;55512;50.102;19.958;2024-01-15T07:57:26;7.80;;;2.80;;
68509;SDS011;55512;50.102;19.958;2024-01-15T07:59:52;6.30;;;2.30;;
68509;SDS011;55512;50.102;19.958;2024-01-15T08:02:17;8.70;;;3.10;;
68509;SDS011;55512;50.102;19.958;2024-01-15T08:04:43;9.90;;;2.40;;
68509;SDS011;55512;50.102;19.958;2024-01-15T08:07:11;6.70;;;2.70;;
68509;SDS011;55512;50.102;19.958;2024-01-15T08:09:38;6.80;;;1.90;;
68509;SDS011;55512;50.102;19.958;2024-01-15T08:12:09;8.60;;;2.80;;
68509;SDS011;55512;50.102;19.958;2024-01-15T08:14:41;9.00;;;3.30;;
68509;SDS011;55512;50.102;19.958;2024-01-15T08:17:20;8.90;;;3.60;;
68509;SDS011;55512;50.102;19.958;2024-01-15T08:19:53;6.50;;;2.40;;
68509;SDS011;55512;50.102;19.958;2024-01-15T08:22:41;9.70;;;3.00;;
68509;SDS011;55512;50.102;19.958;2024-01-15T08:25:49;7.80;;;2.80;;
68509;SDS011;55512;50.102;19.958;2024-01-15T08:28:23;6.60;;;3.00;;
68509;SDS011;55512;50.102;19.958;2024-01-15T08:30:57;8.40;;;2.90;;
68509;SDS011;55512;50.102;19.958;2024-01-15T08:33:31;6.90;;;3.30;;
68509;SDS011;55512;50.102;19.958;2024-01-15T08:36:06;11.80;;;3.30;;
68509;SDS011;55512;50.102;19.958;2024-01-15T08:38:52;11.00;;;4.10;;
68509;SDS011;55512;50.102;19.958;2024-01-15T08:41:26;7.80;;;2.80;;
68509;SDS011;55512;50.102;19.958;2024-01-15T08:43:51;7.90;;;3.30;;
68509;SDS011;55512;50.102;19.958;2024-01-15T08:46:18;10.00;;;3.30;;
68509;SDS011;55512;50.102;19.958;2024-01-15T08:48:44;7.60;;;3.10;;
68509;SDS011;55512;50.102;19.958;2024-01-15T08:51:11;6.50;;;3.20;;
68509;SDS011;55512;50.102;19.958;2024-01-15T08:53:37;9.60;;;3.50;;
68509;SDS011;55512;50.102;19.958;2024-01-15T08:56:03;7.30;;;2.70;;
68509;SDS011;55512;50.102;19.958;2024-01-15T08:58:28;9.30;;;3.20;;
68509;SDS011;55512;50.102;19.958;2024-01-15T09:00:54;8.30;;;2.80;;
68509;SDS011;55512;50.102;19.958;2024-01-15T09:03:24;8.20;;;2.70;;
68509;SDS011;55512;50.102;19.958;2024-01-15T09:05:49;5.10;;;2.30;;
68509;SDS011;55512;50.102;19.958;2024-01-15T09:08:18;8.60;;;2.80;;
68509;SDS011;55512;50.102;19.958;2024-01-15T09:11:07;7.20;;;3.00;;
68509;SDS011;55512;50.102;19.958;2024-01-15T09:13:35;6.00;;;2.20;;
68509;SDS011;55512;50.102;19.958;2024-01-15T09:16:01;8.00;;;2.90;;
68509;SDS011;55512;50.102;19.958;2024-01-15T09:18:30;7.60;;;3.10;;
68509;SDS011;55512;50.102;19.958;2024-01-15T09:20:57;7.10;;;2.90;;
68509;SDS011;55512;50.102;19.958;2024-01-15T09:23:22;11.10;;;4.40;;
68509;SDS011;55512;50.102;19.958;2024-01-15T09:25:51;7.30;;;2.80;;
68509;SDS011;55512;50.102;19.958;2024-01-15T09:28:17;9.10;;;3.30;;
68509;SDS011;55512;50.102;19.958;2024-01-15T09:30:43;7.80;;;3.40;;
68509;SDS011;55512;50.102;19.958;2024-01-15T09:33:10;9.80;;;3.60;;
68509;SDS011;55512;50.102;19.958;2024-01-15T09:35:36;9.10;;;3.70;;
68509;SDS011;55512;50.102;19.958;2024-01-15T09:38:05;7.60;;;3.00;;
68509;SDS011;55512;50.102;19.958;2024-01-15T09:40:31;8.50;;;3.40;;
68509;SDS011;55512;50.102;19.958;2024-01-15T09:43:08;8.60;;;3.30;;
68509;SDS011;55512;50.102;19.958;2024-01-15T09:45:54;9.60;;;3.50;;
68509;SDS011;55512;50.102;19.958;2024-01-15T09:48:20;11.00;;;5.00;;
68509;SDS011;55512;50.102;19.958;2024-01-15T09:50:46;7.80;;;3.30;;
68509;SDS011;55512;50.102;19.958;2024-01-15T09:53:15;11.20;;;4.70;;
68509;SDS011;55512;50.102;19.958;2024-01-15T09:55:44;9.80;;;3.30;;
68509;SDS011;55512;50.102;19.958;2024-01-15T09:58:12;9.20;;;4.10;;
68509;SDS011;55512;50.102;19.958;2024-01-15T10:00:39;8.60;;;3.40;;
68509;SDS011;55512;50.102;19.958;2024-01-15T10:03:07;10.60;;;4.00;;
68509;SDS011;55512;50.102;19.958;2024-01-15T10:05:35;9.60;;;4.00;;
68509;SDS011;55512;50.102;19.958;2024-01-15T10:08:02;9.90;;;4.60;;
68509;SDS011;55512;50.102;19.958;2024-01-15T10:10:29;8.80;;;3.70;;
68509;SDS011;55512;50.102;19.958;2024-01-15T10:13:00;9.60;;;3.70;;
68509;SDS011;55512;50.102;19.958;2024-01-15T10:15:26;12.00;;;5.60;;
68509;SDS011;55512;50.102;19.958;2024-01-15T10:17:54;13.90;;;5.10;;
68509;SDS011;55512;50.102;19.958;2024-01-15T10:20:26;11.60;;;5.10;;
68509;SDS011;55512;50.102;19.958;2024-01-15T10:22:57;10.30;;;4.80;;
68509;SDS011;55512;50.102;19.958;2024-01-15T10:25:32;13.30;;;5.50;;
68509;SDS011;55512;50.102;19.958;2024-01-15T10:28:10;11.90;;;5.00;;
68509;SDS011;55512;50.102;19.958;2024-01-15T10:30:36;10.90;;;4.50;;
68509;SDS011;55512;50.102;19.958;2024-01-15T10:33:06;8.40;;;3.20;;
68509;SDS011;55512;50.102;19.958;2024-01-15T10:36:09;12.20;;;4.30;;
68509;SDS011;55512;50.102;19.958;2024-01-15T10:38:39;13.80;;;6.00;;
68509;SDS011;55512;50.102;19.958;2024-01-15T10:41:19;10.00;;;4.50;;
68509;SDS011;55512;50.102;19.958;2024-01-15T10:43:45;10.60;;;4.50;;
68509;SDS011;55512;50.102;19.958;2024-01-15T10:46:11;14.00;;;5.70;;
68509;SDS011;55512;50.102;19.958;2024-01-15T10:48:37;12.40;;;5.50;;
68509;SDS011;55512;50.102;19.958;2024-01-15T10:51:05;11.80;;;4.30;;
68509;SDS011;55512;50.102;19.958;2024-01-15T10:53:45;9.60;;;3.70;;
68509;SDS011;55512;50.102;19.958;2024-01-15T10:56:18;11.80;;;5.70;;
68509;SDS011;55512;50.102;19.958;2024-01-15T10:59:06;11.60;;;4.90;;
68509;SDS011;55512;50.102;19.958;2024-01-15T11:01:39;10.90;;;4.30;;
68509;SDS011;55512;50.102;19.958;2024-01-15T11:04:21;9.10;;;3.60;;
68509;SDS011;55512;50.102;19.958;2024-01-15T11:07:02;9.30;;;3.90;;
68509;SDS011;55512;50.102;19.958;2024-01-15T11:09:29;13.10;;;5.80;;
68509;SDS011;55512;50.102;19.958;2024-01-15T11:12:12;10.90;;;4.00;;
68509;SDS011;55512;50.102;19.958;2024-01-15T11:14:47;12.00;;;3.80;;
68509;SDS011;55512;50.102;19.958;2024-01-15T11:17:15;11.00;;;4.70;;
68509;SDS011;55512;50.102;19.958;2024-01-15T11:19:47;9.90;;;4.20;;
68509;SDS011;55512;50.102;19.958;2024-01-15T11:27:59;11.90;;;4.30;;
68509;SDS011;55512;50.102;19.958;2024-01-15T11:30:25;9.30;;;3.80;;
68509;SDS011;55512;50.102;19.958;2024-01-15T11:32:51;10.70;;;4.50;;
68509;SDS011;55512;50.102;19.958;2024-01-15T11:35:17;10.70;;;4.00;;
68509;SDS011;55512;50.102;19.958;2024-01-15T11:37:57;14.00;;;4.50;;
68509;SDS011;55512;50.102;19.958;2024-01-15T11:40:44;15.30;;;6.50;;
68509;SDS011;55512;50.102;19.958;2024-01-15T11:43:12;10.60;;;4.70;;
68509;SDS011;55512;50.102;19.958;2024-01-15T11:45:39;11.70;;;4.50;;
68509;SDS011;55512;50.102;19.958;2024-01-15T11:48:14;11.50;;;5.20;;
68509;SDS011;55512;50.102;19.958;2024-01-15T11:50:45;10.30;;;5.00;;
68509;SDS011;55512;50.102;19.958;2024-01-15T11:53:32;9.60;;;4.20;;
68509;SDS011;55512;50.102;19.958;2024-01-15T11:56:03;12.40;;;5.60;;
68509;SDS011;55512;50.102;19.958;2024-01-15T11:58:40;11.70;;;4.80;;
68509;SDS011;55512;50.102;19.958;2024-01-15T12:01:06;7.80;;;3.30;;
68509;SDS011;55512;50.102;19.958;2024-01-15T12:03:41;12.10;;;4.80;;
68509;SDS011;55512;50.102;19.958;2024-01-15T12:06:09;12.50;;;5.30;;
68509;SDS011;55512;50.102;19.958;2024-01-15T12:12:50;13.60;;;5.30;;
68509;SDS011;55512;50.102;19.958;2024-01-15T12:15:36;12.60;;;4.60;;
68509;SDS011;55512;50.102;19.958;2024-01-15T12:18:07;10.50;;;4.00;;
68509;SDS011;55512;50.102;19.958;2024-01-15T12:20:39;13.30;;;5.30;;
68509;SDS011;55512;50.102;19.958;2024-01-15T12:23:18;10.40;;;4.80;;
68509;SDS011;55512;50.102;19.958;2024-01-15T12:25:44;12.80;;;6.00;;
68509;SDS011;55512;50.102;19.958;2024-01-15T12:28:17;12.10;;;4.40;;
68509;SDS011;55512;50.102;19.958;2024-01-15T12:30:47;9.10;;;3.80;;
68509;SDS011;55512;50.102;19.958;2024-01-15T12:33:17;12.50;;;5.60;;
68509;SDS011;55512;50.102;19.958;2024-01-15T12:35:52;12.90;;;5.90;;
68509;SDS011;55512;50.102;19.958;2024-01-15T12:38:19;9.90;;;4.70;;
68509;SDS011;55512;50.102;19.958;2024-01-15T12:40:48;11.30;;;5.00;;
68509;SDS011;55512;50.102;19.958;2024-01-15T12:43:22;11.10;;;3.60;;
68509;SDS011;55512;50.102;19.958;2024-01-15T12:45:49;10.40;;;4.00;;
68509;SDS011;55512;50.102;19.958;2024-01-15T12:48:16;13.30;;;4.70;;
68509;SDS011;55512;50.102;19.958;2024-01-15T12:50:47;9.60;;;4.00;;
68509;SDS011;55512;50.102;19.958;2024-01-15T12:53:29;10.70;;;4.50;;
68509;SDS011;55512;50.102;19.958;2024-01-15T12:56:14;10.80;;;4.20;;
68509;SDS011;55512;50.102;19.958;2024-01-15T12:58:58;9.70;;;4.10;;
68509;SDS011;55512;50.102;19.958;2024-01-15T13:01:27;10.90;;;4.00;;
68509;SDS011;55512;50.102;19.958;2024-01-15T13:04:11;12.40;;;4.90;;
68509;SDS011;55512;50.102;19.958;2024-01-15T13:06:37;10.70;;;4.20;;
68509;SDS011;55512;50.102;19.958;2024-01-15T13:09:03;9.90;;;4.40;;
68509;SDS011;55512;50.102;19.958;2024-01-15T13:11:32;11.80;;;5.50;;
68509;SDS011;55512;50.102;19.958;2024-01-15T13:13:59;10.80;;;5.30;;
68509;SDS011;55512;50.102;19.958;2024-01-15T13:16:24;9.30;;;4.20;;
68509;SDS011;55512;50.102;19.958;2024-01-15T13:19:17;11.20;;;4.60;;
68509;SDS011;55512;50.102;19.958;2024-01-15T13:21:55;9.90;;;3.60;;
68509;SDS011;55512;50.102;19.958;2024-01-15T13:24:27;8.10;;;3.20;;
68509;SDS011;55512;50.102;19.958;2024-01-15T13:26:58;11.10;;;4.00;;
68509;SDS011;55512;50.102;19.958;2024-01-15T13:29:25;9.50;;;4.50;;
68509;SDS011;55512;50.102;19.958;2024-01-15T13:31:53;11.20;;;5.20;;
68509;SDS011;55512;50.102;19.958;2024-01-15T13:34:22;11.70;;;5.60;;
68509;SDS011;55512;50.102;19.958;2024-01-15T13:36:50;8.30;;;3.60;;
68509;SDS011;55512;50.102;19.958;2024-01-15T13:39:21;10.80;;;5.10;;
68509;SDS011;55512;50.102;19.958;2024-01-15T13:41:47;9.70;;;4.80;;
68509;SDS011;55512;50.102;19.958;2024-01-15T13:44:13;13.50;;;4.60;;
68509;SDS011;55512;50.102;19.958;2024-01-15T13:46:38;11.00;;;4.70;;
68509;SDS011;55512;50.102;19.958;2024-01-15T13:49:04;12.60;;;5.00;;
68509;SDS011;55512;50.102;19.958;2024-01-15T13:51:31;11.70;;;4.70;;
68509;SDS011;55512;50.102;19.958;2024-01-15T13:53:58;10.90;;;4.00;;
68509;SDS011;55512;50.102;19.958;2024-01-15T13:56:23;10.90;;;4.90;;
68509;SDS011;55512;50.102;19.958;2024-01-15T13:58:52;9.00;;;3.10;;
68509;SDS011;55512;50.102;19.958;2024-01-15T14:01:54;11.60;;;4.20;;
68509;SDS011;55512;50.102;19.958;2024-01-15T14:04:22;13.90;;;5.70;;
68509;SDS011;55512;50.102;19.958;2024-01-15T14:06:53;13.40;;;6.30;;
68509;SDS011;55512;50.102;19.958;2024-01-15T14:09:25;11.40;;;4.30;;
68509;SDS011;55512;50.102;19.958;2024-01-15T14:11:51;8.30;;;3.80;;
68509;SDS011;55512;50.102;19.958;2024-01-15T14:14:33;13.00;;;5.40;;
68509;SDS011;55512;50.102;19.958;2024-01-15T14:17:14;12.00;;;5.50;;
68509;SDS011;55512;50.102;19.958;2024-01-15T14:19:42;11.40;;;5.10;;
68509;SDS011;55512;50.102;19.958;2024-01-15T14:22:10;10.60;;;4.40;;
68509;SDS011;55512;50.102;19.958;2024-01-15T14:24:36;12.90;;;5.20;;
68509;SDS011;55512;50.102;19.958;2024-01-15T14:27:05;8.50;;;3.00;;
68509;SDS011;55512;50.102;19.958;2024-01-15T14:30:02;12.50;;;3.80;;
68509;SDS011;55512;50.102;19.958;2024-01-15T14:36:32;8.90;;;3.80;;
68509;SDS011;55512;50.102;19.958;2024-01-15T14:39:41;8.10;;;3.50;;
68509;SDS011;55512;50.102;19.958;2024-01-15T14:42:19;9.40;;;3.40;;
68509;SDS011;55512;50.102;19.958;2024-01-15T14:48:36;9.10;;;3.30;;
68509;SDS011;55512;50.102;19.958;2024-01-15T14:51:05;10.30;;;3.50;;
68509;SDS011;55512;50.102;19.958;2024-01-15T14:53:48;9.00;;;3.40;;
68509;SDS011;55512;50.102;19.958;2024-01-15T14:56:19;13.40;;;4.10;;
68509;SDS011;55512;50.102;19.958;2024-01-15T14:58:57;10.50;;;4.00;;
68509;SDS011;55512;50.102;19.958;2024-01-15T15:04:19;10.00;;;4.20;;
68509;SDS011;55512;50.102;19.958;2024-01-15T15:06:47;12.40;;;5.50;;
68509;SDS011;55512;50.102;19.958;2024-01-15T15:09:56;10.10;;;4.40;;
68509;SDS011;55512;50.102;19.958;2024-01-15T15:13:09;9.00;;;3.70;;
68509;SDS011;55512;50.102;19.958;2024-01-15T15:15:56;12.30;;;4.10;;
68509;SDS011;55512;50.102;19.958;2024-01-15T15:18:27;10.30;;;4.20;;
68509;SDS011;55512;50.102;19.958;2024-01-15T15:20:58;9.10;;;3.80;;
68509;SDS011;55512;50.102;19.958;2024-01-15T15:26:33;11.60;;;4.70;;
68509;SDS011;55512;50.102;19.958;2024-01-15T15:29:02;13.00;;;5.10;;